sensor_id;sensor_type;location;lat;lon;timestamp;P1;durP1;ratioP1;P2;durP2;ratioP2
68097;SDS011;54886;47.036;15.466;2022-07-01T00:00:41;12.40;;;9.27;;
68097;SDS011;54886;47.036;15.466;2022-07-01T00:03:06;13.88;;;9.35;;
68097;SDS011;54886;47.036;15.466;2022-07-01T00:05:31;13.90;;;9.50;;
68097;SDS011;54886;47.036;15.466;2022-07-01T00:07:57;12.43;;;9.35;;
68097;SDS011;54886;47.036;15.466;2022-07-01T00:10:22;16.23;;;9.73;;
68097;SDS011;54886;47.036;15.466;2022-07-01T00:12:48;12.07;;;8.73;;
68097;SDS011;54886;47.036;15.466;2022-07-01T00:15:14;13.38;;;9.68;;
68097;SDS011;54886;47.036;15.466;2022-07-01T00:17:39;14.13;;;9.23;;
68097;SDS011;54886;47.036;15.466;2022-07-01T00:20:05;11.48;;;9.05;;
68097;SDS011;54886;47.036;15.466;2022-07-01T00:22:32;13.25;;;9.60;;
68097;SDS011;54886;47.036;15.466;2022-07-01T00:24:58;13.48;;;9.10;;
68097;SDS011;54886;47.036;15.466;2022-07-01T00:27:24;11.82;;;8.93;;
68097;SDS011;54886;47.036;15.466;2022-07-01T00:29:49;13.70;;;8.70;;
68097;SDS011;54886;47.036;15.466;2022-07-01T00:32:15;12.55;;;9.05;;
68097;SDS011;54886;47.036;15.466;2022-07-01T00:34:40;15.90;;;9.63;;
68097;SDS011;54886;47.036;15.466;2022-07-01T00:37:06;12.50;;;8.82;;
68097;SDS011;54886;47.036;15.466;2022-07-01T00:39:31;14.32;;;9.52;;
68097;SDS011;54886;47.036;15.466;2022-07-01T00:41:59;13.82;;;9.40;;
68097;SDS011;54886;47.036;15.466;2022-07-01T00:44:25;19.38;;;9.80;;
68097;SDS011;54886;47.036;15.466;2022-07-01T00:46:51;12.13;;;8.68;;
68097;SDS011;54886;47.036;15.466;2022-07-01T00:49:17;13.70;;;8.85;;
68097;SDS011;54886;47.036;15.466;2022-07-01T00:51:43;13.60;;;9.32;;
68097;SDS011;54886;47.036;15.466;2022-07-01T00:54:09;12.65;;;9.27;;
68097;SDS011;54886;47.036;15.466;2022-07-01T00:56:35;14.38;;;9.55;;
68097;SDS011;54886;47.036;15.466;2022-07-01T00:59:01;13.48;;;9.75;;
68097;SDS011;54886;47.036;15.466;2022-07-01T01:01:26;11.52;;;9.13;;
68097;SDS011;54886;47.036;15.466;2022-07-01T01:03:52;15.50;;;9.65;;
68097;SDS011;54886;47.036;15.466;2022-07-01T01:06:17;16.67;;;9.70;;
68097;SDS011;54886;47.036;15.466;2022-07-01T01:08:43;13.35;;;9.30;;
68097;SDS011;54886;47.036;15.466;2022-07-01T01:11:09;16.27;;;9.80;;
68097;SDS011;54886;47.036;15.466;2022-07-01T01:13:35;12.60;;;9.50;;
68097;SDS011;54886;47.036;15.466;2022-07-01T01:16:01;11.35;;;9.13;;
68097;SDS011;54886;47.036;15.466;2022-07-01T01:18:26;16.70;;;9.70;;
68097;SDS011;54886;47.036;15.466;2022-07-01T01:20:52;16.75;;;9.27;;
68097;SDS011;54886;47.036;15.466;2022-07-01T01:23:20;14.10;;;10.25;;
68097;SDS011;54886;47.036;15.466;2022-07-01T01:25:46;11.77;;;9.55;;
68097;SDS011;54886;47.036;15.466;2022-07-01T01:28:12;13.57;;;9.73;;
68097;SDS011;54886;47.036;15.466;2022-07-01T01:30:38;16.05;;;9.90;;
68097;SDS011;54886;47.036;15.466;2022-07-01T01:33:03;11.85;;;9.40;;
68097;SDS011;54886;47.036;15.466;2022-07-01T01:35:29;12.07;;;9.35;;
68097;SDS011;54886;47.036;15.466;2022-07-01T01:37:56;16.30;;;10.02;;
68097;SDS011;54886;47.036;15.466;2022-07-01T01:40:22;11.15;;;9.38;;
68097;SDS011;54886;47.036;15.466;2022-07-01T01:42:47;16.30;;;9.43;;
68097;SDS011;54886;47.036;15.466;2022-07-01T01:45:13;13.75;;;9.43;;
68097;SDS011;54886;47.036;15.466;2022-07-01T01:47:38;11.82;;;9.05;;
68097;SDS011;54886;47.036;15.466;2022-07-01T01:50:05;15.38;;;9.75;;
68097;SDS011;54886;47.036;15.466;2022-07-01T01:52:31;11.32;;;9.43;;
68097;SDS011;54886;47.036;15.466;2022-07-01T01:54:58;14.90;;;9.88;;
68097;SDS011;54886;47.036;15.466;2022-07-01T01:57:24;11.88;;;9.70;;
68097;SDS011;54886;47.036;15.466;2022-07-01T01:59:49;13.75;;;10.00;;
68097;SDS011;54886;47.036;15.466;2022-07-01T02:02:16;14.23;;;10.15;;
68097;SDS011;54886;47.036;15.466;2022-07-01T02:04:41;12.68;;;10.20;;
68097;SDS011;54886;47.036;15.466;2022-07-01T02:07:06;12.02;;;10.00;;
68097;SDS011;54886;47.036;15.466;2022-07-01T02:09:32;12.60;;;9.60;;
68097;SDS011;54886;47.036;15.466;2022-07-01T02:11:57;11.93;;;9.52;;
68097;SDS011;54886;47.036;15.466;2022-07-01T02:14:23;13.07;;;9.77;;
68097;SDS011;54886;47.036;15.466;2022-07-01T02:16:48;13.13;;;9.38;;
68097;SDS011;54886;47.036;15.466;2022-07-01T02:19:14;13.88;;;10.13;;
68097;SDS011;54886;47.036;15.466;2022-07-01T02:21:39;13.77;;;10.10;;
68097;SDS011;54886;47.036;15.466;2022-07-01T02:24:05;12.73;;;10.15;;
68097;SDS011;54886;47.036;15.466;2022-07-01T02:26:31;13.65;;;10.00;;
68097;SDS011;54886;47.036;15.466;2022-07-01T02:28:56;13.00;;;10.27;;
68097;SDS011;54886;47.036;15.466;2022-07-01T02:31:21;13.32;;;9.80;;
68097;SDS011;54886;47.036;15.466;2022-07-01T02:33:47;12.35;;;10.45;;
68097;SDS011;54886;47.036;15.466;2022-07-01T02:36:13;11.27;;;9.65;;
68097;SDS011;54886;47.036;15.466;2022-07-01T02:38:38;15.75;;;10.38;;
68097;SDS011;54886;47.036;15.466;2022-07-01T02:41:04;15.15;;;10.25;;
68097;SDS011;54886;47.036;15.466;2022-07-01T02:43:29;12.38;;;9.98;;
68097;SDS011;54886;47.036;15.466;2022-07-01T02:45:56;13.07;;;10.75;;
68097;SDS011;54886;47.036;15.466;2022-07-01T02:48:24;11.93;;;10.15;;
68097;SDS011;54886;47.036;15.466;2022-07-01T02:50:50;14.75;;;10.00;;
68097;SDS011;54886;47.036;15.466;2022-07-01T02:53:15;12.40;;;9.98;;
68097;SDS011;54886;47.036;15.466;2022-07-01T02:55:41;14.27;;;10.27;;
68097;SDS011;54886;47.036;15.466;2022-07-01T02:58:06;14.32;;;10.00;;
68097;SDS011;54886;47.036;15.466;2022-07-01T03:00:31;14.35;;;10.38;;
68097;SDS011;54886;47.036;15.466;2022-07-01T03:02:57;12.68;;;9.40;;
68097;SDS011;54886;47.036;15.466;2022-07-01T03:05:22;15.20;;;10.18;;
68097;SDS011;54886;47.036;15.466;2022-07-01T03:07:48;15.02;;;10.43;;
68097;SDS011;54886;47.036;15.466;2022-07-01T03:10:13;13.40;;;10.07;;
68097;SDS011;54886;47.036;15.466;2022-07-01T03:12:39;15.40;;;10.15;;
68097;SDS011;54886;47.036;15.466;2022-07-01T03:15:09;12.95;;;9.65;;
68097;SDS011;54886;47.036;15.466;2022-07-01T03:17:37;16.45;;;10.20;;
68097;SDS011;54886;47.036;15.466;2022-07-01T03:20:05;15.65;;;10.68;;
68097;SDS011;54886;47.036;15.466;2022-07-01T03:22:32;12.57;;;9.68;;
68097;SDS011;54886;47.036;15.466;2022-07-01T03:24:58;15.63;;;10.38;;
68097;SDS011;54886;47.036;15.466;2022-07-01T03:27:24;13.10;;;10.07;;
68097;SDS011;54886;47.036;15.466;2022-07-01T03:29:50;18.83;;;10.98;;
68097;SDS011;54886;47.036;15.466;2022-07-01T03:32:16;13.15;;;10.07;;
68097;SDS011;54886;47.036;15.466;2022-07-01T03:34:44;16.45;;;10.65;;
68097;SDS011;54886;47.036;15.466;2022-07-01T03:37:11;15.00;;;10.40;;
68097;SDS011;54886;47.036;15.466;2022-07-01T03:39:37;13.02;;;10.23;;
68097;SDS011;54886;47.036;15.466;2022-07-01T03:42:04;15.90;;;10.60;;
68097;SDS011;54886;47.036;15.466;2022-07-01T03:44:31;14.00;;;9.80;;
68097;SDS011;54886;47.036;15.466;2022-07-01T03:46:57;15.10;;;10.63;;
68097;SDS011;54886;47.036;15.466;2022-07-01T03:49:22;14.02;;;10.45;;
68097;SDS011;54886;47.036;15.466;2022-07-01T03:51:48;19.83;;;10.93;;
68097;SDS011;54886;47.036;15.466;2022-07-01T03:54:14;13.75;;;10.95;;
68097;SDS011;54886;47.036;15.466;2022-07-01T03:57:27;14.73;;;10.20;;
68097;SDS011;54886;47.036;15.466;2022-07-01T03:59:46;13.88;;;10.05;;
68097;SDS011;54886;47.036;15.466;2022-07-01T04:02:11;14.25;;;10.57;;
68097;SDS011;54886;47.036;15.466;2022-07-01T04:04:37;15.30;;;11.23;;
68097;SDS011;54886;47.036;15.466;2022-07-01T04:07:03;14.85;;;10.70;;
68097;SDS011;54886;47.036;15.466;2022-07-01T04:09:31;14.45;;;10.48;;
68097;SDS011;54886;47.036;15.466;2022-07-01T04:11:56;13.95;;;11.00;;
68097;SDS011;54886;47.036;15.466;2022-07-01T04:14:22;17.38;;;10.93;;
68097;SDS011;54886;47.036;15.466;2022-07-01T04:16:49;14.77;;;10.93;;
68097;SDS011;54886;47.036;15.466;2022-07-01T04:19:15;14.45;;;11.15;;
68097;SDS011;54886;47.036;15.466;2022-07-01T04:21:41;13.73;;;10.68;;
68097;SDS011;54886;47.036;15.466;2022-07-01T04:24:25;14.40;;;10.48;;
68097;SDS011;54886;47.036;15.466;2022-07-01T04:26:51;16.48;;;10.95;;
68097;SDS011;54886;47.036;15.466;2022-07-01T04:29:17;19.60;;;12.10;;
68097;SDS011;54886;47.036;15.466;2022-07-01T04:31:44;17.67;;;13.50;;
68097;SDS011;54886;47.036;15.466;2022-07-01T04:34:10;16.92;;;12.32;;
68097;SDS011;54886;47.036;15.466;2022-07-01T04:36:36;19.27;;;12.82;;
68097;SDS011;54886;47.036;15.466;2022-07-01T04:39:03;16.38;;;13.65;;
68097;SDS011;54886;47.036;15.466;2022-07-01T04:41:29;19.63;;;13.63;;
68097;SDS011;54886;47.036;15.466;2022-07-01T04:44:13;17.02;;;12.48;;
68097;SDS011;54886;47.036;15.466;2022-07-01T04:46:39;16.33;;;12.70;;
68097;SDS011;54886;47.036;15.466;2022-07-01T04:49:05;16.08;;;12.88;;
68097;SDS011;54886;47.036;15.466;2022-07-01T04:51:32;18.83;;;13.63;;
68097;SDS011;54886;47.036;15.466;2022-07-01T04:53:59;18.70;;;13.57;;
68097;SDS011;54886;47.036;15.466;2022-07-01T04:56:34;16.27;;;13.00;;
68097;SDS011;54886;47.036;15.466;2022-07-01T04:59:01;18.10;;;12.95;;
68097;SDS011;54886;47.036;15.466;2022-07-01T05:01:27;16.58;;;12.50;;
68097;SDS011;54886;47.036;15.466;2022-07-01T05:03:53;16.60;;;11.95;;
68097;SDS011;54886;47.036;15.466;2022-07-01T05:06:19;17.55;;;12.27;;
68097;SDS011;54886;47.036;15.466;2022-07-01T05:08:44;15.75;;;11.73;;
68097;SDS011;54886;47.036;15.466;2022-07-01T05:11:10;15.35;;;11.68;;
68097;SDS011;54886;47.036;15.466;2022-07-01T05:13:35;15.60;;;11.45;;
68097;SDS011;54886;47.036;15.466;2022-07-01T05:16:01;14.10;;;11.65;;
68097;SDS011;54886;47.036;15.466;2022-07-01T05:18:27;15.13;;;12.43;;
68097;SDS011;54886;47.036;15.466;2022-07-01T05:21:11;17.60;;;13.43;;
68097;SDS011;54886;47.036;15.466;2022-07-01T05:23:55;18.52;;;12.23;;
68097;SDS011;54886;47.036;15.466;2022-07-01T05:26:20;16.05;;;11.65;;
68097;SDS011;54886;47.036;15.466;2022-07-01T05:28:46;18.92;;;12.27;;
68097;SDS011;54886;47.036;15.466;2022-07-01T05:31:12;15.70;;;11.10;;
68097;SDS011;54886;47.036;15.466;2022-07-01T05:33:37;17.80;;;11.43;;
68097;SDS011;54886;47.036;15.466;2022-07-01T05:36:03;18.60;;;11.93;;
68097;SDS011;54886;47.036;15.466;2022-07-01T05:38:29;14.55;;;10.88;;
68097;SDS011;54886;47.036;15.466;2022-07-01T05:40:54;17.50;;;12.68;;
68097;SDS011;54886;47.036;15.466;2022-07-01T05:43:19;18.45;;;12.38;;
68097;SDS011;54886;47.036;15.466;2022-07-01T05:45:45;15.23;;;12.27;;
68097;SDS011;54886;47.036;15.466;2022-07-01T05:48:11;14.35;;;11.35;;
68097;SDS011;54886;47.036;15.466;2022-07-01T05:50:36;15.52;;;11.93;;
68097;SDS011;54886;47.036;15.466;2022-07-01T05:53:02;16.48;;;13.00;;
68097;SDS011;54886;47.036;15.466;2022-07-01T05:55:28;17.55;;;12.27;;
68097;SDS011;54886;47.036;15.466;2022-07-01T05:57:53;13.98;;;10.88;;
68097;SDS011;54886;47.036;15.466;2022-07-01T06:00:19;17.65;;;11.38;;
68097;SDS011;54886;47.036;15.466;2022-07-01T06:02:44;16.73;;;11.15;;
68097;SDS011;54886;47.036;15.466;2022-07-01T06:05:10;18.50;;;12.15;;
68097;SDS011;54886;47.036;15.466;2022-07-01T06:07:38;17.08;;;12.32;;
68097;SDS011;54886;47.036;15.466;2022-07-01T06:10:05;18.27;;;11.70;;
68097;SDS011;54886;47.036;15.466;2022-07-01T06:12:32;17.73;;;13.32;;
68097;SDS011;54886;47.036;15.466;2022-07-01T06:14:57;17.75;;;12.57;;
68097;SDS011;54886;47.036;15.466;2022-07-01T06:17:22;16.23;;;11.65;;
68097;SDS011;54886;47.036;15.466;2022-07-01T06:19:48;16.75;;;11.93;;
68097;SDS011;54886;47.036;15.466;2022-07-01T06:22:13;18.88;;;12.90;;
68097;SDS011;54886;47.036;15.466;2022-07-01T06:24:41;18.42;;;12.30;;
68097;SDS011;54886;47.036;15.466;2022-07-01T06:27:07;20.17;;;12.02;;
68097;SDS011;54886;47.036;15.466;2022-07-01T06:29:32;15.93;;;11.40;;
68097;SDS011;54886;47.036;15.466;2022-07-01T06:31:59;15.52;;;11.43;;
68097;SDS011;54886;47.036;15.466;2022-07-01T06:34:25;14.95;;;10.40;;
68097;SDS011;54886;47.036;15.466;2022-07-01T06:36:50;17.88;;;11.13;;
68097;SDS011;54886;47.036;15.466;2022-07-01T06:39:16;15.23;;;10.52;;
68097;SDS011;54886;47.036;15.466;2022-07-01T06:41:42;16.65;;;11.55;;
68097;SDS011;54886;47.036;15.466;2022-07-01T06:44:07;13.93;;;10.90;;
68097;SDS011;54886;47.036;15.466;2022-07-01T06:46:32;15.50;;;10.75;;
68097;SDS011;54886;47.036;15.466;2022-07-01T06:48:58;12.52;;;10.40;;
68097;SDS011;54886;47.036;15.466;2022-07-01T06:51:25;17.05;;;10.63;;
68097;SDS011;54886;47.036;15.466;2022-07-01T06:53:51;17.50;;;10.80;;
68097;SDS011;54886;47.036;15.466;2022-07-01T06:56:17;14.10;;;10.85;;
68097;SDS011;54886;47.036;15.466;2022-07-01T06:58:43;15.65;;;10.52;;
68097;SDS011;54886;47.036;15.466;2022-07-01T07:01:09;16.05;;;10.40;;
68097;SDS011;54886;47.036;15.466;2022-07-01T07:03:35;15.88;;;10.82;;
68097;SDS011;54886;47.036;15.466;2022-07-01T07:06:01;14.18;;;10.77;;
68097;SDS011;54886;47.036;15.466;2022-07-01T07:08:28;14.02;;;10.85;;
68097;SDS011;54886;47.036;15.466;2022-07-01T07:10:55;14.27;;;10.30;;
68097;SDS011;54886;47.036;15.466;2022-07-01T07:13:20;17.33;;;10.38;;
68097;SDS011;54886;47.036;15.466;2022-07-01T07:15:46;16.63;;;10.65;;
68097;SDS011;54886;47.036;15.466;2022-07-01T07:18:11;15.23;;;9.82;;
68097;SDS011;54886;47.036;15.466;2022-07-01T07:20:37;13.27;;;9.52;;
68097;SDS011;54886;47.036;15.466;2022-07-01T07:23:03;15.90;;;9.80;;
68097;SDS011;54886;47.036;15.466;2022-07-01T07:25:29;19.08;;;10.90;;
68097;SDS011;54886;47.036;15.466;2022-07-01T07:27:54;17.42;;;11.70;;
68097;SDS011;54886;47.036;15.466;2022-07-01T07:30:20;20.65;;;11.02;;
68097;SDS011;54886;47.036;15.466;2022-07-01T07:32:45;15.45;;;10.65;;
68097;SDS011;54886;47.036;15.466;2022-07-01T07:35:11;14.38;;;10.38;;
68097;SDS011;54886;47.036;15.466;2022-07-01T07:37:37;14.85;;;9.68;;
68097;SDS011;54886;47.036;15.466;2022-07-01T07:40:04;15.32;;;9.75;;
68097;SDS011;54886;47.036;15.466;2022-07-01T07:42:35;16.50;;;10.05;;
68097;SDS011;54886;47.036;15.466;2022-07-01T07:45:02;16.83;;;9.82;;
68097;SDS011;54886;47.036;15.466;2022-07-01T07:47:28;17.40;;;9.98;;
68097;SDS011;54886;47.036;15.466;2022-07-01T07:49:53;14.35;;;9.07;;
68097;SDS011;54886;47.036;15.466;2022-07-01T07:52:19;14.73;;;9.02;;
68097;SDS011;54886;47.036;15.466;2022-07-01T07:54:45;13.48;;;7.90;;
68097;SDS011;54886;47.036;15.466;2022-07-01T07:57:10;14.23;;;8.27;;
68097;SDS011;54886;47.036;15.466;2022-07-01T07:59:36;13.55;;;9.10;;
68097;SDS011;54886;47.036;15.466;2022-07-01T08:02:02;16.30;;;9.57;;
68097;SDS011;54886;47.036;15.466;2022-07-01T08:04:28;15.50;;;9.20;;
68097;SDS011;54886;47.036;15.466;2022-07-01T08:06:53;15.15;;;9.60;;
68097;SDS011;54886;47.036;15.466;2022-07-01T08:09:18;15.48;;;9.77;;
68097;SDS011;54886;47.036;15.466;2022-07-01T08:11:45;13.25;;;9.27;;
68097;SDS011;54886;47.036;15.466;2022-07-01T08:14:11;15.20;;;9.70;;
68097;SDS011;54886;47.036;15.466;2022-07-01T08:16:36;16.70;;;10.27;;
68097;SDS011;54886;47.036;15.466;2022-07-01T08:19:02;14.98;;;10.50;;
68097;SDS011;54886;47.036;15.466;2022-07-01T08:21:28;15.90;;;9.20;;
68097;SDS011;54886;47.036;15.466;2022-07-01T08:23:54;15.30;;;9.95;;
68097;SDS011;54886;47.036;15.466;2022-07-01T08:26:20;14.15;;;10.30;;
68097;SDS011;54886;47.036;15.466;2022-07-01T08:28:46;14.93;;;10.27;;
68097;SDS011;54886;47.036;15.466;2022-07-01T08:31:12;14.98;;;9.98;;
68097;SDS011;54886;47.036;15.466;2022-07-01T08:33:37;14.45;;;9.98;;
68097;SDS011;54886;47.036;15.466;2022-07-01T08:36:07;16.98;;;10.52;;
68097;SDS011;54886;47.036;15.466;2022-07-01T08:38:34;13.80;;;9.60;;
68097;SDS011;54886;47.036;15.466;2022-07-01T08:41:00;16.20;;;9.43;;
68097;SDS011;54886;47.036;15.466;2022-07-01T08:43:26;17.03;;;10.00;;
68097;SDS011;54886;47.036;15.466;2022-07-01T08:45:52;13.85;;;8.90;;
68097;SDS011;54886;47.036;15.466;2022-07-01T08:48:18;15.63;;;8.35;;
68097;SDS011;54886;47.036;15.466;2022-07-01T08:50:44;14.70;;;8.95;;
68097;SDS011;54886;47.036;15.466;2022-07-01T08:53:10;16.88;;;9.00;;
68097;SDS011;54886;47.036;15.466;2022-07-01T08:55:37;11.35;;;8.88;;
68097;SDS011;54886;47.036;15.466;2022-07-01T08:58:22;14.90;;;8.88;;
68097;SDS011;54886;47.036;15.466;2022-07-01T09:03:14;14.80;;;8.53;;
68097;SDS011;54886;47.036;15.466;2022-07-01T09:05:39;13.68;;;8.70;;
68097;SDS011;54886;47.036;15.466;2022-07-01T09:08:14;13.70;;;8.20;;
68097;SDS011;54886;47.036;15.466;2022-07-01T09:10:39;11.77;;;7.90;;
68097;SDS011;54886;47.036;15.466;2022-07-01T09:13:05;11.98;;;7.85;;
68097;SDS011;54886;47.036;15.466;2022-07-01T09:15:33;12.02;;;7.68;;
68097;SDS011;54886;47.036;15.466;2022-07-01T09:18:12;13.35;;;8.10;;
68097;SDS011;54886;47.036;15.466;2022-07-01T09:20:40;12.73;;;7.90;;
68097;SDS011;54886;47.036;15.466;2022-07-01T09:23:08;12.02;;;7.95;;
68097;SDS011;54886;47.036;15.466;2022-07-01T09:25:41;13.48;;;8.02;;
68097;SDS011;54886;47.036;15.466;2022-07-01T09:28:11;12.52;;;8.35;;
68097;SDS011;54886;47.036;15.466;2022-07-01T09:30:44;13.93;;;8.10;;
68097;SDS011;54886;47.036;15.466;2022-07-01T09:33:18;13.77;;;8.00;;
68097;SDS011;54886;47.036;15.466;2022-07-01T09:35:44;14.52;;;7.95;;
68097;SDS011;54886;47.036;15.466;2022-07-01T09:38:11;10.45;;;7.57;;
68097;SDS011;54886;47.036;15.466;2022-07-01T09:40:54;14.30;;;7.40;;
68097;SDS011;54886;47.036;15.466;2022-07-01T09:43:26;9.63;;;7.18;;
68097;SDS011;54886;47.036;15.466;2022-07-01T09:45:54;12.90;;;7.68;;
68097;SDS011;54886;47.036;15.466;2022-07-01T09:48:24;15.65;;;7.53;;
68097;SDS011;54886;47.036;15.466;2022-07-01T09:50:52;11.75;;;7.57;;
68097;SDS011;54886;47.036;15.466;2022-07-01T09:53:18;13.73;;;7.20;;
68097;SDS011;54886;47.036;15.466;2022-07-01T09:55:44;10.63;;;7.15;;
68097;SDS011;54886;47.036;15.466;2022-07-01T09:58:10;12.32;;;7.20;;
68097;SDS011;54886;47.036;15.466;2022-07-01T10:00:36;14.30;;;7.53;;
68097;SDS011;54886;47.036;15.466;2022-07-01T10:03:02;12.63;;;6.35;;
68097;SDS011;54886;47.036;15.466;2022-07-01T10:05:33;12.30;;;6.80;;
68097;SDS011;54886;47.036;15.466;2022-07-01T10:14:13;10.35;;;6.45;;
68097;SDS011;54886;47.036;15.466;2022-07-01T10:21:45;9.40;;;6.38;;
68097;SDS011;54886;47.036;15.466;2022-07-01T10:24:12;10.60;;;6.50;;
68097;SDS011;54886;47.036;15.466;2022-07-01T10:26:39;13.40;;;6.50;;
68097;SDS011;54886;47.036;15.466;2022-07-01T10:29:09;11.13;;;6.55;;
68097;SDS011;54886;47.036;15.466;2022-07-01T10:31:52;12.88;;;5.72;;
68097;SDS011;54886;47.036;15.466;2022-07-01T10:34:18;14.70;;;5.78;;
68097;SDS011;54886;47.036;15.466;2022-07-01T10:36:44;10.73;;;5.50;;
68097;SDS011;54886;47.036;15.466;2022-07-01T10:39:10;10.18;;;5.40;;
68097;SDS011;54886;47.036;15.466;2022-07-01T10:44:14;11.43;;;5.15;;
68097;SDS011;54886;47.036;15.466;2022-07-01T10:46:50;12.88;;;5.07;;
68097;SDS011;54886;47.036;15.466;2022-07-01T10:52:11;9.45;;;4.70;;
68097;SDS011;54886;47.036;15.466;2022-07-01T10:59:42;8.55;;;4.68;;
68097;SDS011;54886;47.036;15.466;2022-07-01T11:02:22;11.27;;;4.90;;
68097;SDS011;54886;47.036;15.466;2022-07-01T11:04:58;11.65;;;4.18;;
68097;SDS011;54886;47.036;15.466;2022-07-01T11:07:26;11.05;;;4.13;;
68097;SDS011;54886;47.036;15.466;2022-07-01T11:09:53;10.73;;;4.10;;
68097;SDS011;54886;47.036;15.466;2022-07-01T11:12:20;11.02;;;4.35;;
68097;SDS011;54886;47.036;15.466;2022-07-01T11:14:48;9.25;;;4.15;;
68097;SDS011;54886;47.036;15.466;2022-07-01T11:17:15;11.15;;;4.00;;
68097;SDS011;54886;47.036;15.466;2022-07-01T11:19:42;9.25;;;3.83;;
68097;SDS011;54886;47.036;15.466;2022-07-01T11:22:21;9.43;;;4.18;;
68097;SDS011;54886;47.036;15.466;2022-07-01T11:24:52;8.65;;;4.40;;
68097;SDS011;54886;47.036;15.466;2022-07-01T11:27:18;9.77;;;4.60;;
68097;SDS011;54886;47.036;15.466;2022-07-01T11:29:44;7.88;;;4.18;;
68097;SDS011;54886;47.036;15.466;2022-07-01T11:32:09;9.63;;;3.80;;
68097;SDS011;54886;47.036;15.466;2022-07-01T11:34:35;8.55;;;3.97;;
68097;SDS011;54886;47.036;15.466;2022-07-01T11:37:08;10.65;;;3.83;;
68097;SDS011;54886;47.036;15.466;2022-07-01T11:40:02;8.90;;;3.67;;
68097;SDS011;54886;47.036;15.466;2022-07-01T11:42:31;8.75;;;3.70;;
68097;SDS011;54886;47.036;15.466;2022-07-01T11:44:57;11.40;;;3.73;;
68097;SDS011;54886;47.036;15.466;2022-07-01T11:47:24;8.43;;;3.55;;
68097;SDS011;54886;47.036;15.466;2022-07-01T11:49:50;9.70;;;4.03;;
68097;SDS011;54886;47.036;15.466;2022-07-01T11:52:17;9.87;;;3.90;;
68097;SDS011;54886;47.036;15.466;2022-07-01T11:54:45;11.27;;;4.70;;
68097;SDS011;54886;47.036;15.466;2022-07-01T11:57:16;9.15;;;4.20;;
68097;SDS011;54886;47.036;15.466;2022-07-01T11:59:43;8.48;;;3.95;;
68097;SDS011;54886;47.036;15.466;2022-07-01T12:02:11;8.60;;;3.75;;
68097;SDS011;54886;47.036;15.466;2022-07-01T12:04:39;9.10;;;4.20;;
68097;SDS011;54886;47.036;15.466;2022-07-01T12:07:05;10.77;;;4.57;;
68097;SDS011;54886;47.036;15.466;2022-07-01T12:09:32;9.65;;;4.00;;
68097;SDS011;54886;47.036;15.466;2022-07-01T12:11:58;8.18;;;3.67;;
68097;SDS011;54886;47.036;15.466;2022-07-01T12:14:25;9.43;;;3.58;;
68097;SDS011;54886;47.036;15.466;2022-07-01T12:16:57;9.18;;;3.40;;
68097;SDS011;54886;47.036;15.466;2022-07-01T12:22:01;7.28;;;3.58;;
68097;SDS011;54886;47.036;15.466;2022-07-01T12:24:29;8.18;;;3.65;;
68097;SDS011;54886;47.036;15.466;2022-07-01T12:29:23;7.97;;;3.50;;
68097;SDS011;54886;47.036;15.466;2022-07-01T12:39:46;7.93;;;3.58;;
68097;SDS011;54886;47.036;15.466;2022-07-01T12:42:30;9.55;;;3.60;;
68097;SDS011;54886;47.036;15.466;2022-07-01T12:45:11;9.30;;;3.38;;
68097;SDS011;54886;47.036;15.466;2022-07-01T12:47:38;7.30;;;3.42;;
68097;SDS011;54886;47.036;15.466;2022-07-01T12:52:41;8.93;;;3.50;;
68097;SDS011;54886;47.036;15.466;2022-07-01T12:55:22;8.98;;;3.80;;
68097;SDS011;54886;47.036;15.466;2022-07-01T12:57:48;10.60;;;3.87;;
68097;SDS011;54886;47.036;15.466;2022-07-01T13:00:18;10.00;;;3.58;;
68097;SDS011;54886;47.036;15.466;2022-07-01T13:02:45;6.78;;;3.45;;
68097;SDS011;54886;47.036;15.466;2022-07-01T13:05:11;8.50;;;4.00;;
68097;SDS011;54886;47.036;15.466;2022-07-01T13:07:37;9.90;;;3.80;;
68097;SDS011;54886;47.036;15.466;2022-07-01T13:10:02;10.40;;;3.57;;
68097;SDS011;54886;47.036;15.466;2022-07-01T13:12:28;9.47;;;3.40;;
68097;SDS011;54886;47.036;15.466;2022-07-01T13:14:54;6.83;;;3.40;;
68097;SDS011;54886;47.036;15.466;2022-07-01T13:17:21;11.35;;;3.83;;
68097;SDS011;54886;47.036;15.466;2022-07-01T13:19:47;7.93;;;3.50;;
68097;SDS011;54886;47.036;15.466;2022-07-01T13:22:13;8.02;;;3.70;;
68097;SDS011;54886;47.036;15.466;2022-07-01T13:24:39;7.87;;;3.50;;
68097;SDS011;54886;47.036;15.466;2022-07-01T13:27:05;8.17;;;3.73;;
68097;SDS011;54886;47.036;15.466;2022-07-01T13:29:30;9.82;;;3.67;;
68097;SDS011;54886;47.036;15.466;2022-07-01T13:31:56;14.43;;;3.70;;
68097;SDS011;54886;47.036;15.466;2022-07-01T13:34:21;10.67;;;3.60;;
68097;SDS011;54886;47.036;15.466;2022-07-01T13:36:47;11.43;;;4.03;;
68097;SDS011;54886;47.036;15.466;2022-07-01T13:39:12;11.20;;;3.40;;
68097;SDS011;54886;47.036;15.466;2022-07-01T13:41:38;9.03;;;3.90;;
68097;SDS011;54886;47.036;15.466;2022-07-01T13:44:03;10.67;;;3.50;;
68097;SDS011;54886;47.036;15.466;2022-07-01T13:46:29;7.13;;;3.40;;
68097;SDS011;54886;47.036;15.466;2022-07-01T13:48:54;9.40;;;3.40;;
68097;SDS011;54886;47.036;15.466;2022-07-01T13:51:20;7.13;;;3.77;;
68097;SDS011;54886;47.036;15.466;2022-07-01T13:53:45;9.93;;;3.63;;
68097;SDS011;54886;47.036;15.466;2022-07-01T13:56:11;9.80;;;3.40;;
68097;SDS011;54886;47.036;15.466;2022-07-01T13:58:36;7.83;;;3.67;;
68097;SDS011;54886;47.036;15.466;2022-07-01T14:01:02;11.63;;;3.70;;
68097;SDS011;54886;47.036;15.466;2022-07-01T14:03:28;8.02;;;3.10;;
68097;SDS011;54886;47.036;15.466;2022-07-01T14:05:53;7.73;;;3.77;;
68097;SDS011;54886;47.036;15.466;2022-07-01T14:08:19;9.50;;;3.60;;
68097;SDS011;54886;47.036;15.466;2022-07-01T14:10:44;7.53;;;3.80;;
68097;SDS011;54886;47.036;15.466;2022-07-01T14:13:14;9.37;;;3.50;;
68097;SDS011;54886;47.036;15.466;2022-07-01T14:15:39;8.88;;;3.30;;
68097;SDS011;54886;47.036;15.466;2022-07-01T14:18:05;8.23;;;3.50;;
68097;SDS011;54886;47.036;15.466;2022-07-01T14:20:30;10.20;;;3.37;;
68097;SDS011;54886;47.036;15.466;2022-07-01T14:22:56;8.07;;;3.07;;
68097;SDS011;54886;47.036;15.466;2022-07-01T14:25:21;6.80;;;3.30;;
68097;SDS011;54886;47.036;15.466;2022-07-01T14:27:47;7.63;;;2.97;;
68097;SDS011;54886;47.036;15.466;2022-07-01T14:30:14;8.05;;;3.10;;
68097;SDS011;54886;47.036;15.466;2022-07-01T14:32:40;7.68;;;3.00;;
68097;SDS011;54886;47.036;15.466;2022-07-01T14:35:06;6.30;;;2.80;;
68097;SDS011;54886;47.036;15.466;2022-07-01T14:37:32;6.93;;;3.20;;
68097;SDS011;54886;47.036;15.466;2022-07-01T14:39:57;8.93;;;3.27;;
68097;SDS011;54886;47.036;15.466;2022-07-01T14:42:26;7.70;;;3.00;;
68097;SDS011;54886;47.036;15.466;2022-07-01T14:44:55;8.68;;;2.90;;
68097;SDS011;54886;47.036;15.466;2022-07-01T14:47:21;10.95;;;3.47;;
68097;SDS011;54886;47.036;15.466;2022-07-01T14:49:47;10.57;;;3.58;;
68097;SDS011;54886;47.036;15.466;2022-07-01T14:52:16;10.60;;;3.47;;
68097;SDS011;54886;47.036;15.466;2022-07-01T14:54:42;11.35;;;3.30;;
68097;SDS011;54886;47.036;15.466;2022-07-01T14:57:08;8.90;;;3.67;;